Laredo, Texas
Current Conditions -  °F | °C
As of 10:56 AM on Thursday 27 Nov 2014 (Local Time) from KLRD Reporting Station
Clear Clear  
Wind Chill: 66°   Ceiling: Unl
Heat Index: 66°   Visibility: 10mi
Dew Point: 39°   Wind: 7mph
Humidity: 37%   Direction: 60°ENE
Pressure: 30.47"   Gusts: NA
Location:  27.53°N, 99.5°W
Report Text: KLRD 271656Z 06006KT 10SM CLR 19/04 A3047 RMK AO2 T01880038 SLP317 $
Loading
Personal Weather Stations






























Interactive Weather Map New forecast layout! Learn more

10-Day Weather Forecast

Advertisements
Track Severe Weather on mobile